Time;durP1;ratioP1;P1;durP2;ratioP2;P2;SDS_P1;SDS_P2;PMS_P1;PMS_P2;Temp;Humidity;BMP_temperature;BMP_pressure;BME280_temperature;BME280_humidity;BME280_pressure;Samples;Min_cycle;Max_cycle;Signal;HPM_P1;HPM_P2
2022/02/15 04:31:27;;;;;;;3.90;2.53;;;;;;;12.24;51.89;98208.97;7779028;23;20306;-87
2022/02/15 04:34:49;;;;;;;4.83;2.40;;;;;;;12.19;51.31;98216.94;6877924;28;20287;-86
2022/02/15 04:38:11;;;;;;;2.77;2.43;;;;;;;11.82;52.16;98176.72;6874621;28;20301;-86
2022/02/15 04:41:33;;;;;;;4.53;2.33;;;;;;;11.72;52.23;98161.06;6883174;28;20238;-86
2022/02/15 04:45:01;;;;;;;5.00;2.63;;;;;;;11.09;54.41;98219.06;6875512;28;20205;-87
2022/02/15 04:48:24;;;;;;;5.20;2.17;;;;;;;11.08;53.26;98184.19;6875204;28;20601;-89
2022/02/15 04:51:45;;;;;;;3.47;3.07;;;;;;;11.68;52.57;98240.88;6870474;28;20272;-88
2022/02/15 04:55:08;;;;;;;5.80;2.63;;;;;;;11.82;52.03;98212.66;6869955;28;20220;-88
2022/02/15 04:58:30;;;;;;;4.77;2.70;;;;;;;11.67;51.02;98165.47;6871072;28;20288;-88
2022/02/15 05:01:52;;;;;;;3.70;2.50;;;;;;;11.79;51.81;98233.88;6882856;28;20225;-90
2022/02/15 05:05:14;;;;;;;2.93;2.50;;;;;;;12.36;50.78;98236.88;6872483;28;20204;-88
2022/02/15 05:08:36;;;;;;;4.17;2.53;;;;;;;11.81;50.27;98156.97;6868597;28;20217;-88
2022/02/15 05:11:58;;;;;;;4.00;2.90;;;;;;;12.38;50.53;98236.59;6847875;28;20627;-88
2022/02/15 05:15:19;;;;;;;3.30;2.67;;;;;;;12.60;50.28;98251.25;6840455;29;20199;-88
2022/02/15 05:18:41;;;;;;;5.40;2.60;;;;;;;12.30;51.54;98253.16;6841346;29;20213;-89
2022/02/15 05:22:05;;;;;;;2.80;2.40;;;;;;;12.28;52.02;98264.19;6842010;29;20387;-88
2022/02/15 05:25:26;;;;;;;4.53;3.57;;;;;;;11.91;52.64;98222.09;6841599;29;20671;-89
2022/02/15 05:28:48;;;;;;;5.23;3.33;;;;;;;11.52;53.97;98256.81;6842215;29;20201;-88
2022/02/15 05:32:12;;;;;;;3.60;2.63;;;;;;;11.47;53.79;98253.97;6840631;28;20615;-90
2022/02/15 05:35:34;;;;;;;5.03;2.93;;;;;;;11.35;53.39;98235.00;6841960;29;20246;-88
2022/02/15 05:38:57;;;;;;;2.80;2.57;;;;;;;11.89;52.78;98262.03;6855152;28;20287;-88
2022/02/15 05:42:18;;;;;;;4.10;2.80;;;;;;;11.41;53.36;98203.56;6869704;28;20712;-88
2022/02/15 05:45:40;;;;;;;3.00;2.50;;;;;;;12.14;51.93;98273.53;6872480;28;20293;-89
2022/02/15 05:49:03;;;;;;;2.83;2.10;;;;;;;12.07;51.62;98242.25;6873595;28;20245;-86
2022/02/15 05:52:25;;;;;;;3.20;2.20;;;;;;;11.73;52.31;98275.28;6877679;28;20271;-88
2022/02/15 05:55:51;;;;;;;2.90;2.40;;;;;;;12.03;51.70;98238.38;6870369;28;20237;-88
2022/02/15 05:59:12;;;;;;;2.80;2.60;;;;;;;12.47;51.05;98267.69;6870871;28;20196;-88
2022/02/15 06:02:34;;;;;;;3.83;2.57;;;;;;;11.61;51.45;98188.00;6871093;28;20635;-88
2022/02/15 06:05:55;;;;;;;4.47;2.60;;;;;;;11.69;51.69;98210.09;6873607;28;20209;-88
2022/02/15 06:09:17;;;;;;;4.77;2.80;;;;;;;12.01;51.05;98226.94;6869999;28;20860;-87
2022/02/15 06:12:40;;;;;;;4.57;2.40;;;;;;;11.99;51.60;98266.88;6857345;28;20246;-88
2022/02/15 06:16:02;;;;;;;6.80;3.70;;;;;;;11.85;50.63;98174.38;6847475;29;20230;-85
2022/02/15 06:19:23;;;;;;;8.23;4.33;;;;;;;12.60;49.55;98279.13;6848391;29;20214;-86
2022/02/15 06:22:45;;;;;;;7.10;4.13;;;;;;;12.27;50.70;98283.38;6850876;28;20242;-86
2022/02/15 06:26:06;;;;;;;4.23;3.07;;;;;;;12.01;51.37;98292.63;6848257;29;20660;-85
2022/02/15 06:29:30;;;;;;;9.53;6.13;;;;;;;12.37;50.40;98280.91;6847900;28;20274;-86
2022/02/15 06:32:53;;;;;;;6.87;4.97;;;;;;;12.78;49.84;98311.53;6846738;29;20234;-86
2022/02/15 06:36:15;;;;;;;4.50;3.57;;;;;;;12.59;49.60;98309.13;6847663;29;20761;-85
2022/02/15 06:39:36;;;;;;;2.83;2.20;;;;;;;12.17;49.92;98256.06;6864357;28;20222;-86
2022/02/15 06:42:58;;;;;;;3.43;2.37;;;;;;;12.22;50.11;98283.22;6873227;28;20232;-85
2022/02/15 06:46:21;;;;;;;2.50;2.30;;;;;;;11.93;50.66;98276.72;6873408;28;20206;-85
2022/02/15 06:49:43;;;;;;;3.67;2.57;;;;;;;11.61;51.48;98277.09;6876140;28;20268;-86
2022/02/15 06:53:05;;;;;;;5.77;3.23;;;;;;;12.25;50.66;98318.72;6876923;28;20236;-85
2022/02/15 06:56:26;;;;;;;2.10;2.00;;;;;;;12.41;50.18;98338.91;6871724;28;20236;-88
2022/02/15 06:59:50;;;;;;;5.03;3.90;;;;;;;12.17;50.52;98354.16;6856542;28;20209;-89
2022/02/15 07:03:13;;;;;;;4.50;2.87;;;;;;;11.79;51.83;98360.81;6840495;29;20237;-88
2022/02/15 07:06:34;;;;;;;2.93;2.53;;;;;;;11.87;51.79;98357.84;6842315;29;20209;-87
2022/02/15 07:09:56;;;;;;;2.40;2.20;;;;;;;11.68;52.31;98359.69;6843685;29;20281;-88
2022/02/15 07:13:19;;;;;;;2.23;2.03;;;;;;;11.51;52.76;98368.56;6858680;28;20307;-87
2022/02/15 07:20:33;;;;;;;3.63;2.30;;;;;;;11.15;51.41;98238.94;6858504;28;21588;-88
2022/02/15 07:23:56;;;;;;;2.83;2.60;;;;;;;11.77;52.98;98395.34;6862427;28;20293;-89
2022/02/15 07:27:22;;;;;;;3.40;2.30;;;;;;;11.01;52.72;98275.16;6876657;28;20646;-90
2022/02/15 07:30:50;;;;;;;4.57;2.60;;;;;;;11.81;51.90;98369.53;6877020;28;20237;-87
2022/02/15 07:34:12;;;;;;;2.37;2.20;;;;;;;11.74;52.96;98401.19;6875331;28;20295;-90
2022/02/15 07:37:35;;;;;;;7.17;4.73;;;;;;;10.84;52.99;98279.44;6875535;28;20236;-89
2022/02/15 07:40:56;;;;;;;3.90;2.53;;;;;;;10.99;53.09;98315.03;6872682;28;20225;-91
2022/02/15 07:44:26;;;;;;;13.67;6.70;;;;;;;11.50;52.56;98348.81;6870914;28;20189;-90
2022/02/15 07:47:52;;;;;;;3.33;2.70;;;;;;;11.13;53.55;98363.25;6869534;28;20200;-89
2022/02/15 07:51:14;;;;;;;4.50;2.60;;;;;;;11.46;52.58;98327.91;7020823;23;20251;-78
2022/02/15 07:54:38;;;;;;;2.83;2.63;;;;;;;10.83;53.95;98277.81;6891937;28;20229;-77
2022/02/15 07:58:03;;;;;;;3.10;2.70;;;;;;;11.24;52.34;98303.19;6871069;28;20234;-78
2022/02/15 08:01:25;;;;;;;3.80;2.80;;;;;;;11.33;52.33;98312.63;6883406;28;20311;-78
2022/02/15 08:04:47;;;;;;;4.17;2.73;;;;;;;11.45;53.32;98348.66;6898407;28;20234;-78
2022/02/15 08:08:09;;;;;;;2.63;2.43;;;;;;;10.95;53.91;98338.06;6897848;28;20695;-77
2022/02/15 08:11:39;;;;;;;2.90;2.70;;;;;;;11.89;53.49;98458.38;6891498;28;20227;-77
2022/02/15 08:15:01;;;;;;;3.00;2.80;;;;;;;11.69;53.80;98446.94;6871217;28;20214;-78
2022/02/15 08:18:23;;;;;;;3.10;2.20;;;;;;;11.95;53.79;98449.38;6871882;28;20229;-77
2022/02/15 08:21:46;;;;;;;2.17;2.00;;;;;;;12.10;52.54;98474.19;6875621;28;20237;-77
2022/02/15 08:25:09;;;;;;;3.43;2.20;;;;;;;12.00;52.05;98461.19;6870797;28;20229;-77
2022/02/15 08:28:33;;;;;;;6.50;3.63;;;;;;;11.66;52.38;98377.16;6871537;28;20209;-78
2022/02/15 08:31:55;;;;;;;3.90;2.47;;;;;;;12.01;50.90;98380.94;6854281;28;20209;-77
2022/02/15 08:35:19;;;;;;;3.17;2.07;;;;;;;11.95;51.68;98385.38;6871272;28;20206;-78
2022/02/15 08:38:43;;;;;;;3.93;2.47;;;;;;;12.57;50.73;98468.88;6879094;28;20226;-78
2022/02/15 08:42:06;;;;;;;3.63;2.40;;;;;;;12.05;50.63;98337.03;6871919;28;20222;-77
2022/02/15 08:45:32;;;;;;;4.80;4.03;;;;;;;13.05;50.63;98475.16;6872387;28;20209;-78
2022/02/15 08:48:56;;;;;;;3.67;3.17;;;;;;;12.45;51.56;98445.53;6871512;28;20669;-77
2022/02/15 08:52:17;;;;;;;3.03;2.50;;;;;;;11.83;50.79;98332.31;6870707;28;20221;-77
2022/02/15 08:55:54;;;;;;;2.73;2.53;;;;;;;11.78;51.91;98408.63;6871289;28;20683;-77
2022/02/15 08:59:16;;;;;;;3.27;2.97;;;;;;;12.50;51.97;98487.06;6762266;29;20245;-77
2022/02/15 09:02:39;;;;;;;3.00;2.70;;;;;;;12.36;52.63;98490.97;6762395;29;20213;-77
2022/02/15 09:06:01;;;;;;;3.00;2.60;;;;;;;12.20;53.07;98513.16;6762679;29;20231;-78
2022/02/15 09:09:23;;;;;;;3.03;2.77;;;;;;;12.38;52.37;98498.84;6762367;29;20215;-78
2022/02/15 09:12:45;;;;;;;3.87;2.87;;;;;;;11.69;52.50;98422.63;6762417;29;20205;-77
2022/02/15 09:16:07;;;;;;;4.07;2.60;;;;;;;11.86;51.42;98370.50;6762241;29;20295;-77
2022/02/15 09:19:30;;;;;;;3.07;2.80;;;;;;;11.41;52.51;98379.84;6765235;29;20219;-78
2022/02/15 09:22:52;;;;;;;2.97;2.73;;;;;;;12.42;52.11;98518.97;6767261;29;20280;-78
2022/02/15 09:26:14;;;;;;;3.90;2.80;;;;;;;12.47;52.14;98511.03;6767165;29;20336;-78
2022/02/15 09:29:35;;;;;;;2.77;2.53;;;;;;;11.45;52.98;98420.72;6766722;29;20299;-78
2022/02/15 09:32:57;;;;;;;5.13;2.43;;;;;;;12.17;52.52;98508.19;6766872;29;20216;-78
2022/02/15 09:36:21;;;;;;;2.70;2.23;;;;;;;12.09;51.68;98469.84;6832643;28;20216;-78
2022/02/15 09:39:43;;;;;;;3.03;2.40;;;;;;;11.23;52.59;98393.25;6875052;28;20205;-78
2022/02/15 09:43:05;;;;;;;3.80;2.87;;;;;;;12.43;52.06;98526.03;6875813;28;20319;-78
2022/02/15 09:46:27;;;;;;;5.37;2.60;;;;;;;12.66;51.77;98518.94;6875514;28;20230;-77
2022/02/15 09:49:50;;;;;;;3.20;2.40;;;;;;;13.08;50.35;98526.16;6875503;28;20211;-78
2022/02/15 09:53:14;;;;;;;2.73;2.17;;;;;;;11.99;49.70;98305.53;6876033;28;20241;-77
2022/02/15 09:56:36;;;;;;;3.13;2.50;;;;;;;13.43;49.76;98535.25;6874833;28;20213;-84
2022/02/15 09:59:58;;;;;;;2.27;2.10;;;;;;;13.11;48.24;98485.09;6875261;28;20213;-79
2022/02/15 10:03:20;;;;;;;2.83;2.47;;;;;;;13.53;47.14;98557.22;6883731;28;20663;-78
2022/02/15 10:06:42;;;;;;;2.57;2.13;;;;;;;13.42;46.98;98521.94;6902961;28;20289;-78
2022/02/15 10:10:06;;;;;;;4.03;2.63;;;;;;;13.51;47.47;98534.94;6902681;28;20213;-78
2022/02/15 10:13:28;;;;;;;9.63;4.43;;;;;;;13.25;49.18;98565.09;6900477;28;20213;-79
2022/02/15 10:16:51;;;;;;;4.33;2.50;;;;;;;13.44;47.08;98465.66;6874640;28;20231;-82
2022/02/15 10:20:13;;;;;;;2.20;2.00;;;;;;;13.42;46.21;98473.19;6878104;28;20200;-78
2022/02/15 10:23:35;;;;;;;2.40;2.20;;;;;;;14.35;45.14;98556.34;6901596;28;20219;-78
2022/02/15 10:27:01;;;;;;;2.20;2.00;;;;;;;13.21;45.23;98500.81;6901784;28;20296;-76
2022/02/15 10:30:28;;;;;;;3.73;2.23;;;;;;;13.19;46.91;98557.03;6901276;28;20303;-76
2022/02/15 10:33:50;;;;;;;3.33;2.50;;;;;;;13.05;46.23;98529.31;6901067;28;20217;-79
2022/02/15 10:37:14;;;;;;;3.73;2.33;;;;;;;13.13;47.11;98582.31;6900853;28;20603;-79
2022/02/15 10:40:36;;;;;;;2.67;2.43;;;;;;;12.43;45.96;98442.22;6883624;28;20220;-80
2022/02/15 10:44:00;;;;;;;2.50;2.13;;;;;;;13.74;45.06;98564.00;6900924;28;20688;-79
2022/02/15 10:47:23;;;;;;;3.47;2.20;;;;;;;13.37;45.40;98509.09;6886777;28;20216;-80
2022/02/15 10:50:44;;;;;;;2.50;2.30;;;;;;;13.90;44.33;98563.31;6896794;28;20206;-79
2022/02/15 10:54:10;;;;;;;5.27;4.10;;;;;;;13.96;44.21;98578.66;6872203;28;20718;-79
2022/02/15 10:57:32;;;;;;;2.27;2.10;;;;;;;12.27;44.08;98361.75;6856843;28;20236;-79
2022/02/15 11:00:58;;;;;;;3.60;3.00;;;;;;;13.33;43.65;98562.06;6873639;28;20212;-80
2022/02/15 11:04:21;;;;;;;4.03;2.60;;;;;;;13.95;43.20;98590.56;6890922;28;20210;-80
2022/02/15 11:07:44;;;;;;;3.80;2.57;;;;;;;13.68;42.76;98594.72;6900826;28;20345;-78
2022/02/15 11:11:08;;;;;;;3.57;2.53;;;;;;;13.90;42.50;98587.72;6897095;28;20234;-80
2022/02/15 11:14:30;;;;;;;5.47;3.70;;;;;;;13.64;42.33;98596.22;6900132;28;20566;-80
2022/02/15 11:17:56;;;;;;;4.77;2.97;;;;;;;13.60;42.66;98579.63;6890666;28;20233;-83
2022/02/15 11:21:23;;;;;;;4.23;2.40;;;;;;;12.93;43.28;98590.63;6873087;28;20300;-80
2022/02/15 11:24:44;;;;;;;9.40;4.90;;;;;;;12.78;42.44;98494.66;6873193;28;20205;-79
2022/02/15 11:28:08;;;;;;;3.70;2.10;;;;;;;11.68;43.28;98429.91;6873234;28;20579;-80
2022/02/15 11:31:31;;;;;;;2.23;2.10;;;;;;;12.66;42.41;98488.34;6874267;28;20239;-80
2022/02/15 11:34:57;;;;;;;4.97;2.00;;;;;;;13.32;42.21;98583.94;6898303;28;20220;-80
2022/02/15 11:38:20;;;;;;;5.10;2.67;;;;;;;13.58;43.34;98606.09;6896995;28;20240;-84
2022/02/15 11:41:43;;;;;;;3.67;1.97;;;;;;;13.22;41.80;98576.34;6881559;28;20228;-79
2022/02/15 11:45:20;;;;;;;6.00;3.70;;;;;;;12.63;42.89;98569.94;6872994;28;20361;-94
2022/02/15 11:48:44;;;;;;;3.00;2.67;;;;;;;12.42;42.66;98532.50;6873025;28;20215;-77
2022/02/15 11:52:08;;;;;;;3.50;3.17;;;;;;;12.76;43.33;98537.34;6876914;28;20239;-77
2022/02/15 11:55:31;;;;;;;2.20;2.00;;;;;;;12.21;44.46;98493.19;6874979;28;20207;-77
2022/02/15 11:58:53;;;;;;;4.90;2.20;;;;;;;13.05;43.36;98606.97;6892863;28;20288;-78
2022/02/15 12:02:16;;;;;;;3.80;2.40;;;;;;;12.72;42.99;98531.56;6889710;28;20258;-78
2022/02/15 12:05:42;;;;;;;2.50;2.20;;;;;;;12.34;44.23;98540.91;6855342;28;20211;-76
2022/02/15 12:09:05;;;;;;;2.80;2.60;;;;;;;12.86;45.14;98621.53;6896327;28;20267;-76
2022/02/15 12:12:31;;;;;;;3.43;2.40;;;;;;;12.91;44.78;98572.94;6898588;28;20217;-80
2022/02/15 12:15:54;;;;;;;4.60;3.33;;;;;;;13.21;43.46;98611.78;6898727;28;20221;-75
2022/02/15 12:19:24;;;;;;;3.80;3.50;;;;;;;13.34;42.85;98615.16;6871047;28;20229;-74
2022/02/15 12:22:48;;;;;;;3.53;3.30;;;;;;;12.89;41.84;98573.19;6873974;28;20279;-74
2022/02/15 12:26:11;;;;;;;6.27;5.63;;;;;;;13.05;42.56;98615.91;6899092;28;20220;-74
2022/02/15 12:29:33;;;;;;;3.57;3.20;;;;;;;12.91;42.79;98619.78;6888130;28;20213;-74
2022/02/15 12:32:54;;;;;;;3.70;3.13;;;;;;;13.56;41.95;98610.91;6886773;28;20210;-74
2022/02/15 12:36:16;;;;;;;3.73;2.10;;;;;;;13.32;42.16;98609.16;6871025;28;20210;-75
2022/02/15 12:39:38;;;;;;;4.63;2.50;;;;;;;12.71;41.89;98518.25;6871163;28;20233;-77
2022/02/15 12:43:04;;;;;;;4.03;2.47;;;;;;;12.47;41.81;98516.44;6874202;28;20210;-77
2022/02/15 12:46:26;;;;;;;3.70;2.43;;;;;;;13.32;41.78;98589.34;6876674;28;20383;-75
2022/02/15 12:49:47;;;;;;;2.80;2.33;;;;;;;13.99;40.29;98600.69;6871925;28;20303;-76
2022/02/15 12:53:09;;;;;;;5.00;3.87;;;;;;;14.00;39.93;98594.25;6871985;28;20220;-75
2022/02/15 12:56:33;;;;;;;4.30;3.60;;;;;;;13.81;40.82;98592.63;6876682;28;20218;-76
2022/02/15 12:59:57;;;;;;;4.20;3.80;;;;;;;13.66;40.63;98605.78;6876661;28;20242;-77
2022/02/15 13:03:20;;;;;;;3.93;3.10;;;;;;;13.18;41.62;98579.75;6876298;28;20214;-76
2022/02/15 13:06:42;;;;;;;4.03;3.43;;;;;;;12.85;41.33;98519.75;6873947;28;20245;-82
2022/02/15 13:10:05;;;;;;;4.00;3.00;;;;;;;13.01;42.30;98557.91;6875532;28;20253;-81
2022/02/15 13:13:27;;;;;;;5.40;3.50;;;;;;;13.36;42.38;98593.25;6875122;28;20204;-76
2022/02/15 13:16:50;;;;;;;4.40;3.10;;;;;;;12.95;42.29;98536.28;6876102;28;20661;-78
2022/02/15 13:20:15;;;;;;;7.00;4.40;;;;;;;13.47;41.72;98606.03;6890448;28;20240;-76
2022/02/15 13:23:38;;;;;;;5.73;3.83;;;;;;;13.02;42.16;98521.66;6903034;28;20230;-76
2022/02/15 13:26:59;;;;;;;4.37;3.07;;;;;;;13.09;41.93;98499.94;6902907;28;20545;-76
2022/02/15 13:30:25;;;;;;;3.57;2.90;;;;;;;13.07;42.07;98512.84;6899379;28;20219;-83
2022/02/15 13:33:52;;;;;;;3.63;3.33;;;;;;;12.99;42.31;98524.00;6902880;28;20225;-82
2022/02/15 13:37:15;;;;;;;3.80;3.40;;;;;;;13.47;42.17;98555.44;6902636;28;20214;-82
2022/02/15 13:40:37;;;;;;;3.87;2.93;;;;;;;12.85;43.13;98523.28;6895315;28;20208;-83
2022/02/15 13:44:02;;;;;;;4.93;4.30;;;;;;;12.70;44.09;98620.19;6874020;28;20213;-82
2022/02/15 13:47:25;;;;;;;5.93;5.23;;;;;;;11.92;43.65;98406.63;6874078;28;20235;-82
2022/02/15 13:50:49;;;;;;;4.67;4.17;;;;;;;12.21;45.53;98563.47;6858597;28;20250;-82
2022/02/15 13:54:11;;;;;;;10.40;8.60;;;;;;;11.44;47.97;98538.66;6876132;28;20207;-82
2022/02/15 13:57:33;;;;;;;3.20;2.80;;;;;;;11.77;48.84;98655.47;6875554;28;20228;-82
2022/02/15 14:00:55;;;;;;;3.80;2.80;;;;;;;11.57;48.43;98570.97;6877698;28;20224;-83
2022/02/15 14:04:18;;;;;;;3.03;2.77;;;;;;;11.43;48.21;98609.91;6874725;28;20211;-83
2022/02/15 14:07:42;;;;;;;3.00;2.70;;;;;;;12.08;47.17;98641.13;6875181;28;20222;-81
2022/02/15 14:11:04;;;;;;;2.40;2.20;;;;;;;11.54;46.98;98551.69;6875533;28;20272;-78
2022/02/15 14:14:26;;;;;;;3.87;3.23;;;;;;;11.40;46.50;98510.44;6874660;28;20289;-78
2022/02/15 14:17:49;;;;;;;3.23;2.37;;;;;;;12.15;46.77;98667.06;6874676;28;20240;-78
2022/02/15 14:21:13;;;;;;;4.47;2.70;;;;;;;11.57;46.16;98540.47;6874624;28;20698;-78
2022/02/15 14:24:36;;;;;;;2.10;1.90;;;;;;;11.90;46.96;98619.41;6872118;28;20220;-77
2022/02/15 14:27:59;;;;;;;3.70;3.40;;;;;;;11.67;47.92;98579.47;6892324;28;20204;-75
2022/02/15 14:31:21;;;;;;;4.40;3.80;;;;;;;12.12;48.75;98651.28;6900760;28;20208;-75
2022/02/15 14:34:43;;;;;;;3.20;2.90;;;;;;;12.65;47.12;98635.47;6900581;28;20209;-75
2022/02/15 14:38:06;;;;;;;5.97;3.70;;;;;;;13.01;47.81;98663.44;6900589;28;20304;-76
2022/02/15 14:41:29;;;;;;;3.80;3.50;;;;;;;13.14;47.75;98654.34;6900686;28;20204;-75
2022/02/15 14:44:51;;;;;;;6.00;4.00;;;;;;;13.13;45.27;98561.50;6900291;28;20650;-75
2022/02/15 14:48:12;;;;;;;4.83;3.10;;;;;;;12.47;45.81;98573.22;6900952;28;20209;-75
2022/02/15 14:51:34;;;;;;;4.93;4.13;;;;;;;12.36;48.29;98682.09;6900830;28;20220;-75
2022/02/15 14:54:56;;;;;;;6.63;4.20;;;;;;;12.47;47.18;98671.41;6883321;28;20213;-75
2022/02/15 14:58:19;;;;;;;3.70;3.30;;;;;;;12.79;46.45;98662.16;6900714;28;20629;-75
2022/02/15 15:01:41;;;;;;;5.43;3.83;;;;;;;11.57;47.24;98595.28;6900556;28;20208;-76
2022/02/15 15:05:03;;;;;;;4.23;2.60;;;;;;;12.19;47.95;98672.84;6900445;28;20211;-75
2022/02/15 15:08:25;;;;;;;3.30;2.10;;;;;;;12.60;46.59;98681.25;6899885;28;20193;-75
2022/02/15 15:11:46;;;;;;;5.37;2.23;;;;;;;12.87;45.79;98663.75;6900184;28;20208;-76
2022/02/15 15:15:11;;;;;;;2.60;2.00;;;;;;;11.96;45.56;98529.38;6873301;28;20216;-76
2022/02/15 15:18:32;;;;;;;2.10;1.90;;;;;;;12.63;46.68;98667.31;6872525;28;20586;-75
2022/02/15 15:21:55;;;;;;;2.37;2.17;;;;;;;12.82;46.18;98660.91;6899870;28;20227;-76
2022/02/15 15:25:17;;;;;;;3.23;2.10;;;;;;;12.65;46.53;98657.94;6900006;28;20702;-75
2022/02/15 15:28:39;;;;;;;2.40;2.20;;;;;;;12.61;46.08;98628.81;6899360;28;20213;-75
2022/02/15 15:32:03;;;;;;;2.83;2.57;;;;;;;12.26;45.84;98543.88;6899470;28;20209;-75
2022/02/15 15:35:27;;;;;;;6.60;2.20;;;;;;;12.77;45.60;98631.81;6899184;28;20226;-75
2022/02/15 15:38:48;;;;;;;2.77;1.83;;;;;;;12.39;45.16;98582.44;6899173;28;20227;-75
2022/02/15 15:42:10;;;;;;;7.30;2.10;;;;;;;12.60;44.12;98570.38;6899057;28;20210;-75
2022/02/15 15:45:33;;;;;;;3.17;2.67;;;;;;;12.74;44.19;98610.59;6898649;28;20727;-75
2022/02/15 15:48:56;;;;;;;5.10;3.10;;;;;;;13.24;43.85;98660.91;6898989;28;20300;-75
2022/02/15 15:52:20;;;;;;;3.97;3.37;;;;;;;12.99;44.14;98616.00;6898461;28;20231;-75
2022/02/15 15:55:41;;;;;;;4.40;3.70;;;;;;;13.14;43.41;98608.31;6897609;28;20201;-75
2022/02/15 15:59:04;;;;;;;4.40;3.50;;;;;;;13.33;42.76;98599.16;6900148;28;20236;-75
2022/02/15 16:02:26;;;;;;;3.27;2.43;;;;;;;13.11;42.91;98569.00;6870974;28;20668;-75
2022/02/15 16:05:51;;;;;;;2.60;2.07;;;;;;;13.46;42.46;98635.00;6897589;28;20217;-75
2022/02/15 16:09:13;;;;;;;2.97;2.10;;;;;;;13.21;42.24;98569.28;6898560;28;20665;-74
2022/02/15 16:12:35;;;;;;;5.30;2.40;;;;;;;12.89;42.30;98543.44;6898471;28;20257;-75
2022/02/15 16:15:57;;;;;;;2.83;1.90;;;;;;;13.39;42.71;98620.72;6898781;28;20205;-81
2022/02/15 16:19:20;;;;;;;4.13;2.00;;;;;;;13.41;42.80;98678.22;6891179;28;20221;-75
2022/02/15 16:22:43;;;;;;;3.30;2.13;;;;;;;13.24;43.13;98651.94;6870946;28;20224;-75
2022/02/15 16:26:05;;;;;;;5.23;3.30;;;;;;;12.65;43.42;98584.06;6886650;28;20342;-75
2022/02/15 16:29:30;;;;;;;5.77;3.30;;;;;;;12.77;44.33;98637.22;6884048;28;20219;-75
2022/02/15 16:32:52;;;;;;;5.30;4.20;;;;;;;13.27;43.65;98651.50;6869223;28;20241;-75
2022/02/15 16:36:14;;;;;;;5.37;4.67;;;;;;;13.28;43.76;98666.69;6870044;28;20220;-75
2022/02/15 16:39:38;;;;;;;6.63;3.30;;;;;;;12.94;44.24;98656.41;6870139;28;20757;-76
2022/02/15 16:43:00;;;;;;;5.87;2.77;;;;;;;12.80;45.18;98696.28;6871426;28;20205;-75
2022/02/15 16:46:21;;;;;;;5.10;2.53;;;;;;;12.58;45.85;98678.78;6871243;28;20233;-74
2022/02/15 16:49:43;;;;;;;6.47;2.63;;;;;;;11.14;47.22;98555.63;6871525;28;20212;-75
2022/02/15 16:53:05;;;;;;;3.03;2.77;;;;;;;12.38;46.98;98675.41;6871850;28;20236;-76
2022/02/15 16:56:30;;;;;;;7.20;3.30;;;;;;;12.66;45.97;98681.22;6871217;28;20205;-82
2022/02/15 16:59:51;;;;;;;4.47;3.67;;;;;;;11.92;46.04;98601.94;6871339;28;20228;-76
2022/02/15 17:03:13;;;;;;;4.53;2.80;;;;;;;12.25;45.63;98637.66;6883032;28;20219;-75
2022/02/15 17:06:35;;;;;;;5.27;2.77;;;;;;;12.29;46.03;98690.25;6888397;28;20201;-88
2022/02/15 17:09:57;;;;;;;6.43;2.83;;;;;;;11.76;45.18;98605.16;6867897;28;20209;-76
2022/02/15 17:13:20;;;;;;;5.60;3.10;;;;;;;12.39;44.89;98681.66;6868818;28;20208;-77
2022/02/15 17:16:42;;;;;;;5.37;2.57;;;;;;;12.36;45.09;98688.34;6869354;28;20682;-75
2022/02/15 17:20:04;;;;;;;4.07;2.70;;;;;;;11.76;44.62;98598.94;6889430;28;20236;-76
2022/02/15 17:23:49;;;;;;;6.40;2.60;;;;;;;12.37;44.49;98657.53;6896506;28;20655;-76
2022/02/15 17:27:11;;;;;;;3.87;2.20;;;;;;;11.57;45.06;98613.38;6853304;28;20208;-76
2022/02/15 17:30:35;;;;;;;2.50;2.30;;;;;;;11.49;46.18;98700.84;6869142;28;20804;-76
2022/02/15 17:33:57;;;;;;;3.80;2.60;;;;;;;11.62;45.26;98716.19;6869026;28;20205;-76
2022/02/15 17:37:19;;;;;;;3.23;2.67;;;;;;;11.73;45.29;98723.59;6869838;28;20667;-76
2022/02/15 17:40:41;;;;;;;2.60;2.30;;;;;;;11.57;45.24;98714.09;6875347;28;20229;-76
2022/02/15 17:44:03;;;;;;;3.33;2.10;;;;;;;11.78;44.93;98718.38;6900501;28;20208;-75
2022/02/15 17:47:26;;;;;;;2.03;1.83;;;;;;;11.59;45.23;98695.00;6900509;28;20254;-76
2022/02/15 17:50:49;;;;;;;2.63;1.80;;;;;;;11.98;44.45;98702.94;6901256;28;20201;-76
2022/02/15 17:54:31;;;;;;;2.80;2.50;;;;;;;11.68;45.63;98720.75;6900744;28;20214;-75
2022/02/15 17:57:53;;;;;;;2.10;1.90;;;;;;;11.56;46.09;98671.94;6901340;28;20296;-76
2022/02/15 18:01:17;;;;;;;2.60;2.40;;;;;;;11.26;45.39;98583.59;6900782;28;20239;-76
2022/02/15 18:04:40;;;;;;;2.30;2.20;;;;;;;11.58;46.24;98720.31;6900747;28;20291;-76
2022/02/15 18:08:06;;;;;;;4.33;3.43;;;;;;;11.20;47.62;98678.91;6901050;28;20224;-76
2022/02/15 18:11:28;;;;;;;4.93;3.50;;;;;;;11.17;48.12;98727.91;6900415;28;20224;-76
2022/02/15 18:14:50;;;;;;;3.50;3.10;;;;;;;11.36;48.02;98711.69;6900620;28;20208;-75
2022/02/15 18:18:11;;;;;;;3.10;2.80;;;;;;;10.41;48.02;98596.50;6900565;28;20288;-75
2022/02/15 18:21:35;;;;;;;2.73;2.40;;;;;;;10.25;50.88;98710.09;6900700;28;20233;-76
2022/02/15 18:24:56;;;;;;;2.60;2.40;;;;;;;10.38;50.65;98710.94;6900302;28;20613;-76
2022/02/15 18:28:18;;;;;;;2.67;2.47;;;;;;;10.67;50.70;98752.84;6900603;28;20204;-77
2022/02/15 18:35:16;;;;;;;2.57;2.37;;;;;;;10.81;50.03;98738.34;6899166;28;20230;-76
2022/02/15 18:38:39;;;;;;;4.70;2.70;;;;;;;10.85;49.55;98756.59;6899802;28;20212;-76
2022/02/15 18:42:01;;;;;;;3.70;3.00;;;;;;;10.75;50.23;98752.66;6899978;28;20204;-76
2022/02/15 18:45:25;;;;;;;4.00;3.60;;;;;;;10.40;50.38;98706.16;6899670;28;20233;-76
2022/02/15 18:48:47;;;;;;;4.90;4.07;;;;;;;9.77;51.26;98655.50;6899688;28;20211;-75
2022/02/15 18:52:09;;;;;;;4.07;3.23;;;;;;;9.22;51.70;98615.34;6898529;28;20212;-76
2022/02/15 18:55:32;;;;;;;4.47;3.60;;;;;;;10.29;51.28;98728.38;6899715;28;20223;-76
2022/02/15 18:58:54;;;;;;;3.77;3.40;;;;;;;10.21;51.57;98747.41;6899575;28;20236;-75
2022/02/15 19:02:16;;;;;;;3.70;3.40;;;;;;;10.47;50.93;98752.00;6899442;28;20235;-76
2022/02/15 19:05:38;;;;;;;3.77;3.33;;;;;;;9.94;50.75;98654.09;6899133;28;20240;-76
2022/02/15 19:09:00;;;;;;;3.53;3.23;;;;;;;10.20;50.63;98712.56;6899084;28;20216;-76
2022/02/15 19:12:23;;;;;;;3.93;3.20;;;;;;;9.69;51.37;98663.75;6899063;28;20218;-76
2022/02/15 19:15:45;;;;;;;3.30;3.00;;;;;;;9.21;52.00;98647.84;6898829;28;20213;-76
2022/02/15 19:19:06;;;;;;;3.00;2.80;;;;;;;9.74;51.93;98731.28;6898527;28;20239;-76
2022/02/15 19:22:28;;;;;;;3.10;2.80;;;;;;;9.72;51.64;98690.28;6898796;28;20219;-76
2022/02/15 19:25:50;;;;;;;3.53;2.87;;;;;;;9.88;51.54;98743.78;6897924;28;20216;-76
2022/02/15 19:29:14;;;;;;;2.93;2.73;;;;;;;10.17;51.25;98737.25;6886094;28;20209;-82
2022/02/15 19:32:46;;;;;;;4.83;2.93;;;;;;;9.04;50.86;98552.41;6872639;28;20210;-90
2022/02/15 19:36:08;;;;;;;3.73;2.83;;;;;;;10.30;51.37;98792.00;6874572;28;20545;-85
2022/02/15 19:39:46;;;;;;;3.77;3.10;;;;;;;9.32;51.05;98617.66;6872237;28;20332;-87
2022/02/15 19:43:09;;;;;;;3.77;3.57;;;;;;;10.32;51.34;98781.84;6871551;28;20223;-76
2022/02/15 19:46:33;;;;;;;4.40;4.03;;;;;;;9.81;51.41;98709.78;6871668;28;20230;-84
2022/02/15 19:49:54;;;;;;;4.03;3.50;;;;;;;10.16;51.63;98779.50;6872137;28;20218;-83
2022/02/15 19:53:17;;;;;;;3.50;3.20;;;;;;;9.95;51.63;98749.16;6873496;28;20217;-84
2022/02/15 19:56:41;;;;;;;5.37;3.17;;;;;;;9.62;51.92;98745.53;6871698;28;20220;-83
2022/02/15 20:00:04;;;;;;;3.50;3.20;;;;;;;9.66;51.41;98722.53;6880845;28;20224;-75
2022/02/15 20:03:27;;;;;;;3.50;3.20;;;;;;;10.13;50.97;98760.22;6897772;28;20213;-75
2022/02/15 20:06:49;;;;;;;3.17;2.87;;;;;;;10.31;51.59;98787.41;6897600;28;20211;-74
2022/02/15 20:10:11;;;;;;;3.80;3.40;;;;;;;10.15;50.57;98737.44;6898489;28;20233;-75
2022/02/15 20:13:34;;;;;;;5.17;3.20;;;;;;;9.82;50.79;98706.03;6897946;28;20217;-74
2022/02/15 20:16:57;;;;;;;3.83;3.43;;;;;;;10.21;50.71;98762.75;6847762;28;20218;-75
2022/02/15 20:20:20;;;;;;;3.80;3.40;;;;;;;10.23;51.08;98791.16;6879769;28;20232;-75
2022/02/15 20:23:42;;;;;;;3.30;3.00;;;;;;;9.49;52.09;98735.53;6896337;28;20207;-75
2022/02/15 20:27:04;;;;;;;3.50;3.20;;;;;;;9.82;52.12;98792.19;6897725;28;20655;-75
2022/02/15 20:30:27;;;;;;;3.40;2.93;;;;;;;9.35;50.73;98655.78;6893852;28;20201;-81
2022/02/15 20:33:49;;;;;;;3.00;2.80;;;;;;;10.07;50.62;98766.41;6871096;28;20253;-74